Kaiser — NHJK — position and weather

sailwx.info

Track history (hours):
 
Tides and Currents Weather Stations Pressure Air Temp Water Temp Dewpoint Dewpoint Depression Visibility Wind Speed Wind Dir Waves Ship Positions

Kaiser

Last reported at 2017-Aug-26 15:25 UTC. Time now 2017-Sep-19 13:52 UTC.
Position N 32°42' W 117°11'.
Warning: this ship's position is 23 days out of date.

; draft 8.5 m.

Type: Military. MMSI: 303849000.

Date/timePositionNaut miles runAvg speedWind from/ knotsBaromVisibWave heightAir tempDewpointWater temp
2017-Aug-26 15:25N 32°42' W 117°11'1 1.3
2017-Aug-26 15:00N 32°43' W 117°11'7 7.3
2017-Aug-26 14:00N 32°36' W 117°13'5 9.7
2017-Aug-26 13:30N 32°34' W 117°18'611.2
2017-Aug-26 13:00N 32°35' W 117°25'  
2017-Aug-21 16:57N 32°36' W 117°21'510.3
2017-Aug-21 16:30N 32°37' W 117°15'5 9.6
2017-Aug-21 16:00N 32°41' W 117°14'3 5.4
2017-Aug-21 15:30N 32°43' W 117°11'  
2017-Aug-19 00:13N 32°42' W 117°11'0 0.1
2017-Aug-19 00:00N 32°42' W 117°11'2 3.7
2017-Aug-18 23:31N 32°43' W 117°13'1 1.9
2017-Aug-18 23:01N 32°42' W 117°14'0 0.0
2017-Aug-18 22:23N 32°42' W 117°14'0 0.0
2017-Aug-18 21:59N 32°42' W 117°14'0 0.0
2017-Aug-18 21:26N 32°42' W 117°14'0 0.0
2017-Aug-18 20:59N 32°42' W 117°14'0 0.0
2017-Aug-18 20:29N 32°42' W 117°14'0 0.0
2017-Aug-18 19:59N 32°42' W 117°14'0 0.0
2017-Aug-18 19:29N 32°42' W 117°14'0 0.0
2017-Aug-18 18:59N 32°42' W 117°14'0 0.1
2017-Aug-18 18:29N 32°42' W 117°14'0 0.1
2017-Aug-18 17:59N 32°42' W 117°14'0 0.0
2017-Aug-18 17:29N 32°42' W 117°14'0 0.0
2017-Aug-18 16:59N 32°42' W 117°14'0 0.0
2017-Aug-18 16:29N 32°42' W 117°14'0 0.0
2017-Aug-18 15:59N 32°42' W 117°14'0 0.1
2017-Aug-18 15:29N 32°42' W 117°14'0 0.0
2017-Aug-18 14:59N 32°42' W 117°14'1 1.9
2017-Aug-18 14:30N 32°41' W 117°14'8 7.9
2017-Aug-18 13:30N 32°34' W 117°19'612.8
2017-Aug-18 13:01N 32°36' W 117°26'612.7
2017-Aug-18 12:31N 32°36' W 117°34'14 2.8
2017-Aug-18 07:27N 32°35' W 117°50'  
Track history (hours):
 
Tides and Currents Weather Stations Pressure Air Temp Water Temp Dewpoint Dewpoint Depression Visibility Wind Speed Wind Dir Waves Ship Positions

Kaiser

Last reported at 2017-Aug-26 15:25 UTC. Time now 2017-Sep-19 13:52 UTC.
Position N 32°42' W 117°11'.
Warning: this ship's position is 23 days out of date.

; draft 8.5 m.

Type: Military. MMSI: 303849000.

Date/timePositionNaut miles runAvg speedWind from/ knotsBaromVisibWave heightAir tempDewpointWater temp
2017-Aug-26 15:25N 32°42' W 117°11'1 1.3
2017-Aug-26 15:00N 32°43' W 117°11'7 7.3
2017-Aug-26 14:00N 32°36' W 117°13'5 9.7
2017-Aug-26 13:30N 32°34' W 117°18'611.2
2017-Aug-26 13:00N 32°35' W 117°25'  
2017-Aug-21 16:57N 32°36' W 117°21'510.3
2017-Aug-21 16:30N 32°37' W 117°15'5 9.6
2017-Aug-21 16:00N 32°41' W 117°14'3 5.4
2017-Aug-21 15:30N 32°43' W 117°11'  
2017-Aug-19 00:13N 32°42' W 117°11'0 0.1
2017-Aug-19 00:00N 32°42' W 117°11'2 3.7
2017-Aug-18 23:31N 32°43' W 117°13'1 1.9
2017-Aug-18 23:01N 32°42' W 117°14'0 0.0
2017-Aug-18 22:23N 32°42' W 117°14'0 0.0
2017-Aug-18 21:59N 32°42' W 117°14'0 0.0
2017-Aug-18 21:26N 32°42' W 117°14'0 0.0
2017-Aug-18 20:59N 32°42' W 117°14'0 0.0
2017-Aug-18 20:29N 32°42' W 117°14'0 0.0
2017-Aug-18 19:59N 32°42' W 117°14'0 0.0
2017-Aug-18 19:29N 32°42' W 117°14'0 0.0
2017-Aug-18 18:59N 32°42' W 117°14'0 0.1
2017-Aug-18 18:29N 32°42' W 117°14'0 0.1
2017-Aug-18 17:59N 32°42' W 117°14'0 0.0
2017-Aug-18 17:29N 32°42' W 117°14'0 0.0
2017-Aug-18 16:59N 32°42' W 117°14'0 0.0
2017-Aug-18 16:29N 32°42' W 117°14'0 0.0
2017-Aug-18 15:59N 32°42' W 117°14'0 0.1
2017-Aug-18 15:29N 32°42' W 117°14'0 0.0
2017-Aug-18 14:59N 32°42' W 117°14'1 1.9
2017-Aug-18 14:30N 32°41' W 117°14'8 7.9
2017-Aug-18 13:30N 32°34' W 117°19'612.8
2017-Aug-18 13:01N 32°36' W 117°26'612.7
2017-Aug-18 12:31N 32°36' W 117°34'14 2.8
2017-Aug-18 07:27N 32°35' W 117°50'  

Dump ship's entire track history